createdAt,value
2019-06-20T00:00:17.178Z,68.01
2019-06-20T00:00:47.249Z,67.86
2019-06-20T00:01:17.180Z,67.68
2019-06-20T00:01:47.236Z,67.49
2019-06-20T00:02:17.186Z,67.55
2019-06-20T00:02:47.235Z,67.29
2019-06-20T00:03:17.189Z,67.77
2019-06-20T00:03:50.249Z,68.19
2019-06-20T00:04:17.185Z,68.56
2019-06-20T00:04:47.239Z,68.41
2019-06-20T00:05:17.189Z,68.26
2019-06-20T00:05:48.243Z,68.11
2019-06-20T00:06:17.189Z,67.68
2019-06-20T00:06:50.090Z,67.34
2019-06-20T00:07:17.398Z,66.92
2019-06-20T00:07:47.242Z,66.37
2019-06-20T00:08:17.183Z,66.17
2019-06-20T00:08:47.243Z,65.85
2019-06-20T00:09:17.189Z,65.69
2019-06-20T00:09:47.316Z,65.84
2019-06-20T00:10:17.186Z,67.04
2019-06-20T00:10:47.242Z,68.33
2019-06-20T00:11:17.185Z,69.45
2019-06-20T00:11:47.246Z,70.60
2019-06-20T00:12:17.187Z,71.59
2019-06-20T00:12:59.784Z,70.27
2019-06-20T00:13:17.184Z,69.72
2019-06-20T00:13:47.246Z,69.43
2019-06-20T00:14:20.236Z,69.14
2019-06-20T00:14:47.258Z,68.78
2019-06-20T00:15:17.183Z,69.11
2019-06-20T00:15:47.243Z,68.95
2019-06-20T00:16:18.214Z,68.73
2019-06-20T00:16:47.237Z,68.65
2019-06-20T00:17:20.114Z,68.61
2019-06-20T00:17:47.254Z,68.66
2019-06-20T00:18:17.183Z,68.58
2019-06-20T00:18:47.243Z,68.78
2019-06-20T00:19:17.182Z,69.08
2019-06-20T00:19:47.257Z,69.38
2019-06-20T00:20:17.185Z,68.82
2019-06-20T00:20:47.294Z,68.55
2019-06-20T00:21:17.185Z,68.43
2019-06-20T00:21:47.245Z,68.38
2019-06-20T00:22:17.188Z,68.36
2019-06-20T00:22:47.248Z,68.49
2019-06-20T00:23:17.189Z,68.33
2019-06-20T00:23:47.247Z,68.31
2019-06-20T00:24:17.187Z,68.43
2019-06-20T00:24:50.259Z,68.56
2019-06-20T00:25:17.200Z,68.68
2019-06-20T00:25:47.243Z,68.48
2019-06-20T00:26:17.194Z,68.54
2019-06-20T00:26:48.247Z,68.53
2019-06-20T00:27:17.185Z,68.48
2019-06-20T00:27:50.122Z,68.38
2019-06-20T00:28:17.203Z,68.36
2019-06-20T00:28:47.248Z,68.34
2019-06-20T00:29:17.187Z,68.54
2019-06-20T00:29:47.251Z,68.69
2019-06-20T00:30:17.196Z,68.69
2019-06-20T00:30:47.244Z,68.54
2019-06-20T00:31:17.184Z,68.51
2019-06-20T00:31:47.244Z,68.53
2019-06-20T00:32:17.187Z,68.53
2019-06-20T00:32:47.254Z,68.63
2019-06-20T00:33:17.189Z,68.64
2019-06-20T00:33:47.244Z,68.76
2019-06-20T00:34:17.188Z,68.73
2019-06-20T00:34:47.251Z,68.68
2019-06-20T00:35:20.234Z,68.71
2019-06-20T00:35:47.247Z,68.78
2019-06-20T00:36:17.189Z,68.99
2019-06-20T00:36:47.244Z,69.07
2019-06-20T00:37:18.211Z,69.06
2019-06-20T00:37:47.247Z,69.22
2019-06-20T00:38:20.123Z,69.34
2019-06-20T00:38:47.252Z,69.32
2019-06-20T00:39:17.193Z,69.22
2019-06-20T00:39:47.308Z,69.39
2019-06-20T00:40:17.191Z,69.44
2019-06-20T00:40:47.263Z,69.55
2019-06-20T00:41:17.195Z,69.80
2019-06-20T00:41:47.261Z,70.21
2019-06-20T00:42:17.193Z,71.03
2019-06-20T00:42:47.253Z,72.47
2019-06-20T00:43:19.202Z,73.53
2019-06-20T00:43:47.251Z,73.90
2019-06-20T00:44:17.194Z,73.12
2019-06-20T00:44:47.262Z,72.64
2019-06-20T00:45:17.192Z,73.21
2019-06-20T00:45:50.273Z,73.30
2019-06-20T00:46:17.196Z,73.48
2019-06-20T00:46:47.251Z,73.46
2019-06-20T00:47:17.221Z,73.28
2019-06-20T00:47:48.286Z,73.33
2019-06-20T00:48:17.190Z,73.32
2019-06-20T00:48:50.099Z,73.38
2019-06-20T00:49:17.445Z,73.49
2019-06-20T00:49:47.255Z,73.45
2019-06-20T00:50:17.205Z,73.34
2019-06-20T00:50:47.252Z,73.32
2019-06-20T00:51:17.203Z,73.40
2019-06-20T00:51:47.251Z,73.46
2019-06-20T00:52:17.201Z,73.51
2019-06-20T00:52:47.254Z,73.58
2019-06-20T00:53:17.195Z,73.55
2019-06-20T00:53:47.257Z,73.70
2019-06-20T00:54:17.205Z,73.54
2019-06-20T00:54:47.264Z,73.36
2019-06-20T00:55:17.217Z,73.38
2019-06-20T00:55:47.257Z,73.36
2019-06-20T00:56:20.232Z,73.23
2019-06-20T00:56:47.255Z,73.37
2019-06-20T00:57:17.224Z,73.54
2019-06-20T00:57:47.258Z,73.68
2019-06-20T00:58:18.214Z,73.88
2019-06-20T00:58:47.268Z,73.99
2019-06-20T00:59:20.146Z,73.81
2019-06-20T00:59:47.265Z,73.75
2019-06-20T01:00:17.203Z,73.85
2019-06-20T01:00:47.261Z,73.81
2019-06-20T01:01:17.199Z,73.77
2019-06-20T01:01:47.260Z,73.59
2019-06-20T01:02:17.195Z,73.83
2019-06-20T01:02:47.263Z,73.69
2019-06-20T01:03:17.202Z,73.69
2019-06-20T01:03:47.267Z,73.70
2019-06-20T01:04:17.196Z,73.11
2019-06-20T01:04:47.257Z,73.22
2019-06-20T01:05:17.197Z,73.33
2019-06-20T01:05:47.259Z,73.43
2019-06-20T01:06:17.204Z,73.29
2019-06-20T01:06:50.253Z,73.05
2019-06-20T01:07:17.200Z,73.15
2019-06-20T01:07:47.255Z,73.23
2019-06-20T01:08:17.202Z,72.94
2019-06-20T01:08:48.271Z,73.01
2019-06-20T01:09:17.208Z,73.27
2019-06-20T01:09:50.119Z,73.18
2019-06-20T01:10:17.306Z,73.15
2019-06-20T01:10:47.256Z,73.09
2019-06-20T01:11:17.206Z,73.06
2019-06-20T01:11:47.265Z,73.18
2019-06-20T01:12:17.205Z,73.45
2019-06-20T01:12:47.259Z,73.43
2019-06-20T01:13:32.443Z,73.33
2019-06-20T01:13:47.261Z,73.40
2019-06-20T01:14:17.204Z,73.42
2019-06-20T01:14:47.266Z,73.31
2019-06-20T01:15:17.205Z,73.21
2019-06-20T01:15:47.262Z,73.10
2019-06-20T01:16:17.205Z,73.23
2019-06-20T01:16:47.263Z,72.82
2019-06-20T01:17:20.218Z,72.64
2019-06-20T01:17:47.259Z,72.71
2019-06-20T01:18:17.202Z,72.85
2019-06-20T01:18:47.260Z,72.78
2019-06-20T01:19:18.240Z,73.38
2019-06-20T01:19:47.259Z,73.59
2019-06-20T01:20:20.138Z,73.05
2019-06-20T01:20:47.275Z,73.00
2019-06-20T01:21:17.209Z,73.04
2019-06-20T01:21:47.264Z,73.07
2019-06-20T01:22:17.207Z,73.20
2019-06-20T01:22:47.269Z,73.42
2019-06-20T01:23:17.207Z,73.39
2019-06-20T01:23:47.352Z,73.89
2019-06-20T01:24:17.210Z,74.11
2019-06-20T01:24:47.259Z,73.98
2019-06-20T01:25:17.206Z,73.87
2019-06-20T01:25:47.265Z,73.97
2019-06-20T01:26:17.213Z,74.11
2019-06-20T01:26:47.270Z,74.21
2019-06-20T01:27:17.213Z,74.39
2019-06-20T01:27:50.263Z,74.69
2019-06-20T01:28:17.210Z,74.77
2019-06-20T01:28:47.270Z,74.57
2019-06-20T01:29:17.206Z,74.53
2019-06-20T01:29:48.270Z,74.43
2019-06-20T01:30:17.207Z,74.38
2019-06-20T01:30:50.219Z,74.36
2019-06-20T01:31:17.206Z,74.41
2019-06-20T01:31:47.265Z,74.22
2019-06-20T01:32:17.206Z,74.25
2019-06-20T01:32:47.262Z,74.08
2019-06-20T01:33:17.217Z,73.98
2019-06-20T01:33:47.267Z,73.98
2019-06-20T01:34:17.210Z,74.19
2019-06-20T01:34:47.272Z,74.18
2019-06-20T01:35:17.206Z,74.11
2019-06-20T01:35:47.270Z,74.06
2019-06-20T01:36:17.207Z,73.96
2019-06-20T01:36:47.274Z,74.13
2019-06-20T01:37:17.211Z,73.85
2019-06-20T01:37:47.266Z,74.06
2019-06-20T01:38:20.263Z,73.75
2019-06-20T01:38:47.271Z,73.57
2019-06-20T01:39:17.212Z,73.39
2019-06-20T01:39:47.272Z,73.62
2019-06-20T01:40:18.234Z,73.72
2019-06-20T01:40:47.269Z,73.57
2019-06-20T01:41:20.152Z,73.85
2019-06-20T01:41:47.270Z,73.80
2019-06-20T01:42:17.214Z,73.69
2019-06-20T01:42:47.272Z,73.67
2019-06-20T01:43:17.216Z,73.60
2019-06-20T01:43:50.752Z,73.71
2019-06-20T01:44:17.224Z,73.62
2019-06-20T01:44:47.272Z,73.68
2019-06-20T01:45:17.212Z,73.72
2019-06-20T01:45:47.282Z,73.56
2019-06-20T01:46:17.212Z,73.56
2019-06-20T01:46:47.283Z,73.68
2019-06-20T01:47:17.215Z,74.10
2019-06-20T01:47:47.269Z,74.17
2019-06-20T01:48:17.213Z,74.37
2019-06-20T01:48:50.410Z,74.23
2019-06-20T01:49:17.212Z,74.11
2019-06-20T01:49:47.268Z,74.12
2019-06-20T01:50:17.212Z,74.36
2019-06-20T01:50:48.284Z,74.35
2019-06-20T01:51:17.220Z,74.14
2019-06-20T01:51:50.201Z,74.16
2019-06-20T01:52:17.212Z,74.27
2019-06-20T01:52:47.272Z,74.27
2019-06-20T01:53:17.227Z,74.27
2019-06-20T01:53:47.270Z,74.23
2019-06-20T01:54:17.233Z,74.39
2019-06-20T01:54:47.274Z,74.61
2019-06-20T01:55:17.218Z,74.97
2019-06-20T01:55:47.279Z,74.82
2019-06-20T01:56:17.227Z,74.96
2019-06-20T01:56:47.277Z,75.47
2019-06-20T01:57:17.227Z,75.58
2019-06-20T01:57:47.272Z,75.83
2019-06-20T01:58:17.219Z,75.90
2019-06-20T01:58:47.319Z,75.88
2019-06-20T01:59:20.223Z,76.00
2019-06-20T01:59:47.275Z,76.12
2019-06-20T02:00:17.216Z,76.15
2019-06-20T02:00:47.281Z,75.95
2019-06-20T02:01:18.229Z,76.01
2019-06-20T02:01:47.296Z,75.94
2019-06-20T02:02:20.143Z,75.42
2019-06-20T02:02:47.282Z,75.55
2019-06-20T02:03:17.249Z,75.83
2019-06-20T02:03:47.279Z,76.26
2019-06-20T02:04:17.214Z,76.58
2019-06-20T02:04:47.274Z,76.37
2019-06-20T02:05:17.223Z,76.41
2019-06-20T02:05:47.276Z,76.44
2019-06-20T02:06:17.226Z,76.57
2019-06-20T02:06:47.276Z,76.53
2019-06-20T02:07:17.220Z,76.56
2019-06-20T02:07:47.272Z,76.46
2019-06-20T02:08:17.223Z,76.62
2019-06-20T02:08:47.292Z,76.59
2019-06-20T02:09:17.222Z,76.66
2019-06-20T02:09:50.342Z,76.69
2019-06-20T02:10:17.227Z,76.91
2019-06-20T02:10:47.279Z,76.92
2019-06-20T02:11:17.217Z,77.12
2019-06-20T02:11:48.284Z,77.29
2019-06-20T02:12:17.231Z,77.37
2019-06-20T02:12:50.114Z,77.30
2019-06-20T02:13:17.226Z,77.23
2019-06-20T02:13:47.277Z,77.17
2019-06-20T02:14:17.254Z,77.10
2019-06-20T02:14:47.285Z,77.26
2019-06-20T02:15:17.239Z,77.60
2019-06-20T02:15:47.297Z,77.73
2019-06-20T02:16:17.219Z,77.81
2019-06-20T02:16:47.292Z,77.90
2019-06-20T02:17:17.223Z,77.97
2019-06-20T02:17:47.281Z,78.07
2019-06-20T02:18:17.223Z,78.12
2019-06-20T02:18:47.425Z,78.19
2019-06-20T02:19:17.221Z,78.35
2019-06-20T02:19:47.280Z,78.38
2019-06-20T02:20:20.221Z,78.25
2019-06-20T02:20:47.288Z,78.27
2019-06-20T02:21:17.229Z,78.28
2019-06-20T02:21:47.285Z,78.51
2019-06-20T02:22:18.234Z,78.54
2019-06-20T02:22:47.288Z,78.69
2019-06-20T02:23:20.150Z,78.73
2019-06-20T02:23:47.302Z,78.58
2019-06-20T02:24:17.223Z,78.50
2019-06-20T02:24:47.283Z,78.61
2019-06-20T02:25:17.232Z,78.62
2019-06-20T02:25:47.294Z,78.49
2019-06-20T02:26:17.244Z,78.07
2019-06-20T02:26:47.291Z,77.95
2019-06-20T02:27:17.231Z,77.66
2019-06-20T02:27:47.291Z,77.46
2019-06-20T02:28:17.230Z,77.52
2019-06-20T02:28:47.282Z,77.53
2019-06-20T02:29:17.225Z,77.73
2019-06-20T02:29:47.280Z,77.82
2019-06-20T02:30:17.230Z,77.91
2019-06-20T02:30:50.315Z,77.91
2019-06-20T02:31:17.226Z,77.91
2019-06-20T02:31:47.290Z,78.01
2019-06-20T02:32:17.234Z,78.10
2019-06-20T02:32:48.291Z,78.24
2019-06-20T02:33:17.246Z,78.13
2019-06-20T02:33:50.105Z,78.10
2019-06-20T02:34:17.233Z,78.06
2019-06-20T02:34:47.290Z,77.96
2019-06-20T02:35:17.245Z,78.18
2019-06-20T02:35:47.294Z,78.17
2019-06-20T02:36:17.233Z,78.15
2019-06-20T02:36:47.285Z,77.98
2019-06-20T02:37:17.236Z,78.10
2019-06-20T02:37:47.283Z,78.18
2019-06-20T02:38:17.240Z,78.14
2019-06-20T02:38:47.286Z,78.16
2019-06-20T02:39:17.268Z,78.21
2019-06-20T02:39:47.287Z,78.14
2019-06-20T02:40:17.230Z,78.40
2019-06-20T02:40:47.295Z,78.32
2019-06-20T02:41:20.226Z,78.38
2019-06-20T02:41:47.300Z,78.41
2019-06-20T02:42:17.234Z,78.45
2019-06-20T02:42:47.287Z,78.77
2019-06-20T02:43:18.244Z,79.09
2019-06-20T02:43:47.297Z,79.57
2019-06-20T02:44:29.646Z,79.67
2019-06-20T02:44:47.295Z,79.78
2019-06-20T02:45:17.229Z,79.82
2019-06-20T02:45:47.373Z,79.91
2019-06-20T02:46:17.229Z,79.84
2019-06-20T02:46:47.297Z,80.02
2019-06-20T02:47:17.231Z,80.36
2019-06-20T02:47:47.299Z,80.18
2019-06-20T02:48:17.231Z,80.12
2019-06-20T02:48:47.292Z,80.25
2019-06-20T02:49:17.230Z,80.24
2019-06-20T02:49:47.284Z,80.25
2019-06-20T02:50:17.231Z,80.31
2019-06-20T02:50:47.285Z,80.41
2019-06-20T02:51:17.229Z,80.43
2019-06-20T02:51:50.218Z,80.61
2019-06-20T02:52:17.244Z,80.57
2019-06-20T02:52:47.297Z,80.56
2019-06-20T02:53:17.230Z,80.59
2019-06-20T02:53:48.299Z,80.65
2019-06-20T02:54:17.241Z,80.54
2019-06-20T02:54:50.149Z,80.59
2019-06-20T02:55:17.235Z,80.53
2019-06-20T02:55:47.303Z,80.60
2019-06-20T02:56:17.240Z,80.66
2019-06-20T02:56:47.303Z,80.69
2019-06-20T02:57:17.236Z,80.62
2019-06-20T02:57:47.298Z,80.61
2019-06-20T02:58:17.254Z,80.69
2019-06-20T02:58:47.291Z,80.60
2019-06-20T02:59:17.243Z,80.55
2019-06-20T02:59:47.295Z,80.56
2019-06-20T03:00:17.247Z,80.63
2019-06-20T03:00:47.296Z,80.64
2019-06-20T03:01:17.233Z,80.49
2019-06-20T03:01:47.293Z,80.62
2019-06-20T03:02:20.257Z,80.73
2019-06-20T03:02:47.292Z,80.62
2019-06-20T03:03:17.238Z,80.64
2019-06-20T03:03:47.295Z,80.66
2019-06-20T03:04:18.271Z,80.57
2019-06-20T03:04:47.292Z,80.60
2019-06-20T03:05:20.157Z,80.63
2019-06-20T03:05:47.295Z,80.69
2019-06-20T03:06:17.238Z,80.78
2019-06-20T03:06:47.293Z,80.93
2019-06-20T03:07:17.252Z,80.94
2019-06-20T03:07:47.298Z,80.95
2019-06-20T03:08:17.246Z,80.90
2019-06-20T03:08:47.301Z,80.83
2019-06-20T03:09:17.241Z,81.02
2019-06-20T03:09:47.293Z,81.01
2019-06-20T03:10:17.239Z,81.06
2019-06-20T03:10:47.295Z,81.17
2019-06-20T03:11:17.264Z,81.23
2019-06-20T03:11:47.298Z,81.26
2019-06-20T03:12:17.237Z,81.35
2019-06-20T03:12:50.370Z,81.33
2019-06-20T03:13:17.241Z,81.43
2019-06-20T03:13:47.297Z,81.49
2019-06-20T03:14:17.241Z,81.55
2019-06-20T03:14:48.301Z,81.56
2019-06-20T03:15:17.237Z,81.42
2019-06-20T03:15:50.287Z,81.31
2019-06-20T03:16:17.243Z,81.32
2019-06-20T03:16:47.301Z,81.50
2019-06-20T03:17:17.239Z,81.65
2019-06-20T03:17:47.301Z,81.78
2019-06-20T03:18:17.241Z,81.89
2019-06-20T03:18:47.305Z,82.07
2019-06-20T03:19:17.238Z,81.90
2019-06-20T03:19:47.295Z,81.95
2019-06-20T03:20:17.237Z,81.93
2019-06-20T03:20:47.295Z,81.98
2019-06-20T03:21:17.237Z,82.08
2019-06-20T03:21:47.300Z,82.10
2019-06-20T03:22:17.242Z,82.06
2019-06-20T03:22:47.301Z,81.97
2019-06-20T03:23:20.427Z,81.99
2019-06-20T03:23:47.309Z,82.13
2019-06-20T03:24:17.243Z,82.04
2019-06-20T03:24:47.298Z,82.19
2019-06-20T03:25:18.277Z,82.23
2019-06-20T03:25:47.301Z,82.18
2019-06-20T03:26:20.085Z,82.22
2019-06-20T03:26:47.316Z,82.30
2019-06-20T03:27:17.251Z,82.36
2019-06-20T03:27:47.302Z,82.28
2019-06-20T03:28:17.245Z,82.19
2019-06-20T03:28:47.303Z,82.02
2019-06-20T03:29:17.247Z,82.10
2019-06-20T03:29:47.301Z,82.14
2019-06-20T03:30:17.244Z,82.18
2019-06-20T03:30:47.323Z,82.13
2019-06-20T03:31:17.247Z,82.21
2019-06-20T03:31:47.317Z,82.33
2019-06-20T03:32:17.248Z,82.41
2019-06-20T03:32:47.311Z,82.44
2019-06-20T03:33:17.265Z,82.44
2019-06-20T03:33:50.249Z,82.47
2019-06-20T03:34:17.241Z,82.59
2019-06-20T03:34:47.303Z,82.64
2019-06-20T03:35:17.239Z,82.58
2019-06-20T03:35:48.330Z,82.63
2019-06-20T03:36:17.241Z,82.60
2019-06-20T03:36:50.131Z,82.57
2019-06-20T03:37:17.250Z,82.58
2019-06-20T03:37:50.256Z,82.69
2019-06-20T03:38:17.245Z,82.72
2019-06-20T03:38:47.311Z,82.82
2019-06-20T03:39:17.248Z,82.89
2019-06-20T03:39:47.310Z,82.99
2019-06-20T03:40:17.255Z,82.94
2019-06-20T03:40:47.432Z,82.94
2019-06-20T03:41:17.252Z,82.93
2019-06-20T03:41:47.303Z,82.91
2019-06-20T03:42:17.251Z,82.98
2019-06-20T03:42:47.309Z,83.06
2019-06-20T03:43:17.251Z,83.13
2019-06-20T03:43:47.310Z,83.09
2019-06-20T03:44:20.284Z,83.09
2019-06-20T03:45:01.517Z,83.03
2019-06-20T03:45:17.254Z,83.06
2019-06-20T03:45:47.465Z,83.01
2019-06-20T03:46:18.253Z,83.01
2019-06-20T03:46:47.308Z,83.14
2019-06-20T03:47:20.110Z,83.19
2019-06-20T03:47:47.311Z,83.26
2019-06-20T03:48:17.250Z,83.19
2019-06-20T03:48:47.307Z,83.17
2019-06-20T03:49:17.245Z,83.13
2019-06-20T03:49:47.308Z,83.15
2019-06-20T03:50:17.245Z,83.24
2019-06-20T03:50:47.309Z,83.36
2019-06-20T03:51:17.252Z,83.48
2019-06-20T03:51:47.306Z,83.45
2019-06-20T03:52:17.245Z,83.52
2019-06-20T03:52:47.307Z,83.65
2019-06-20T03:53:17.252Z,83.71
2019-06-20T03:53:47.316Z,83.68
2019-06-20T03:54:17.253Z,83.74
2019-06-20T03:54:50.175Z,83.74
2019-06-20T03:55:17.258Z,83.75
2019-06-20T03:55:47.309Z,83.74
2019-06-20T03:56:17.253Z,83.64
2019-06-20T03:56:47.307Z,83.70
2019-06-20T03:57:17.267Z,83.80
2019-06-20T03:57:50.131Z,84.02
2019-06-20T03:58:17.252Z,83.96
2019-06-20T03:58:47.308Z,83.98
2019-06-20T03:59:17.256Z,83.92
2019-06-20T03:59:47.314Z,83.90
2019-06-20T04:00:17.264Z,83.89
2019-06-20T04:00:47.317Z,83.96
2019-06-20T04:01:17.254Z,83.96
2019-06-20T04:01:49.418Z,83.89
2019-06-20T04:02:17.253Z,83.87
2019-06-20T04:02:47.337Z,83.81
2019-06-20T04:03:17.258Z,83.66
2019-06-20T04:03:47.315Z,83.66
2019-06-20T04:04:17.254Z,83.61
2019-06-20T04:04:47.313Z,83.60
2019-06-20T04:05:20.295Z,83.59
2019-06-20T04:05:47.311Z,83.58
2019-06-20T04:06:17.255Z,83.66
2019-06-20T04:06:47.455Z,83.65
2019-06-20T04:07:18.317Z,83.74
2019-06-20T04:07:47.311Z,83.81
2019-06-20T04:08:20.096Z,83.92
2019-06-20T04:08:47.311Z,83.93
2019-06-20T04:09:17.256Z,83.91
2019-06-20T04:09:47.313Z,83.85
2019-06-20T04:10:17.255Z,83.81
2019-06-20T04:10:47.320Z,83.78
2019-06-20T04:11:17.264Z,83.81
2019-06-20T04:11:47.316Z,84.02
2019-06-20T04:12:17.258Z,84.10
2019-06-20T04:12:47.315Z,84.10
2019-06-20T04:13:17.263Z,84.10
2019-06-20T04:13:47.323Z,84.10
2019-06-20T04:14:17.258Z,84.11
2019-06-20T04:14:49.363Z,84.06
2019-06-20T04:15:19.784Z,83.99
2019-06-20T04:15:50.249Z,84.07
2019-06-20T04:16:17.259Z,84.06
2019-06-20T04:16:47.324Z,83.96
2019-06-20T04:17:17.273Z,83.96
2019-06-20T04:17:48.328Z,83.93
2019-06-20T04:18:17.260Z,83.82
2019-06-20T04:18:50.099Z,83.88
2019-06-20T04:19:17.337Z,83.84
2019-06-20T04:19:47.318Z,83.81
2019-06-20T04:20:17.258Z,83.83
2019-06-20T04:20:47.318Z,83.74
2019-06-20T04:21:17.252Z,83.76
2019-06-20T04:21:47.315Z,83.76
2019-06-20T04:22:17.277Z,83.75
2019-06-20T04:22:47.324Z,83.71
2019-06-20T04:23:17.255Z,83.55
2019-06-20T04:23:47.319Z,83.56
2019-06-20T04:24:17.262Z,83.51
2019-06-20T04:24:47.324Z,83.48
2019-06-20T04:25:17.257Z,83.48
2019-06-20T04:25:47.314Z,83.43
2019-06-20T04:26:20.177Z,83.49
2019-06-20T04:26:47.318Z,83.56
2019-06-20T04:27:17.264Z,83.57
2019-06-20T04:27:47.318Z,83.61
2019-06-20T04:28:18.278Z,83.62
2019-06-20T04:28:47.326Z,83.68
2019-06-20T04:29:20.111Z,83.73
2019-06-20T04:29:47.330Z,83.79
2019-06-20T04:30:17.264Z,83.78
2019-06-20T04:30:47.334Z,83.80
2019-06-20T04:31:17.260Z,83.77
2019-06-20T04:31:47.320Z,83.81
2019-06-20T04:32:17.259Z,83.76
2019-06-20T04:32:47.352Z,83.74
2019-06-20T04:33:17.262Z,83.74
2019-06-20T04:33:47.374Z,83.76
2019-06-20T04:34:17.258Z,83.69
2019-06-20T04:34:47.323Z,83.49
2019-06-20T04:35:17.287Z,83.53
2019-06-20T04:35:47.321Z,83.53
2019-06-20T04:36:17.257Z,83.47
2019-06-20T04:36:50.192Z,83.36
2019-06-20T04:37:17.259Z,83.41
2019-06-20T04:37:47.319Z,83.47
2019-06-20T04:38:17.256Z,83.35
2019-06-20T04:38:48.329Z,83.40
2019-06-20T04:39:19.838Z,83.38
2019-06-20T04:39:50.099Z,83.27
2019-06-20T04:40:17.263Z,83.03
2019-06-20T04:40:47.337Z,82.83
2019-06-20T04:41:17.296Z,82.94
2019-06-20T04:41:47.323Z,82.88
2019-06-20T04:42:19.282Z,82.94
2019-06-20T04:42:47.359Z,82.84
2019-06-20T04:43:17.267Z,82.83
2019-06-20T04:43:47.433Z,82.71
2019-06-20T04:44:17.267Z,82.59
2019-06-20T04:44:47.333Z,82.39
2019-06-20T04:45:17.266Z,82.29
2019-06-20T04:45:47.330Z,82.23
2019-06-20T04:46:17.273Z,81.67
2019-06-20T04:46:47.328Z,81.43
2019-06-20T04:47:20.201Z,81.55
2019-06-20T04:47:47.324Z,81.46
2019-06-20T04:48:17.266Z,81.45
2019-06-20T04:48:47.329Z,81.27
2019-06-20T04:49:19.873Z,81.25
2019-06-20T04:49:47.345Z,81.19
2019-06-20T04:50:20.112Z,81.33
2019-06-20T04:50:47.338Z,81.43
2019-06-20T04:51:17.268Z,81.56
2019-06-20T04:51:47.327Z,81.71
2019-06-20T04:52:17.263Z,81.86
2019-06-20T04:52:47.325Z,81.80
2019-06-20T04:53:17.266Z,81.69
2019-06-20T04:53:47.328Z,81.60
2019-06-20T04:54:17.267Z,81.52
2019-06-20T04:54:47.329Z,81.47
2019-06-20T04:55:17.264Z,81.50
2019-06-20T04:55:47.324Z,81.52
2019-06-20T04:56:17.273Z,81.56
2019-06-20T04:56:47.333Z,81.45
2019-06-20T04:57:17.267Z,81.44
2019-06-20T04:57:50.263Z,81.36
2019-06-20T04:58:17.270Z,81.47
2019-06-20T04:58:47.338Z,81.47
2019-06-20T04:59:17.272Z,81.48
2019-06-20T04:59:47.332Z,81.55
2019-06-20T05:00:17.274Z,81.61
2019-06-20T05:00:50.110Z,81.47
2019-06-20T05:01:17.277Z,81.47
2019-06-20T05:01:47.333Z,81.52
2019-06-20T05:02:17.267Z,81.51
2019-06-20T05:02:47.332Z,81.35
2019-06-20T05:03:17.270Z,81.32
2019-06-20T05:03:47.333Z,81.21
2019-06-20T05:04:17.273Z,81.01
2019-06-20T05:04:47.335Z,81.07
2019-06-20T05:05:17.267Z,81.06
2019-06-20T05:05:47.337Z,80.79
2019-06-20T05:06:47.330Z,80.86
2019-06-20T05:07:47.339Z,80.43
2019-06-20T05:08:47.330Z,79.19
2019-06-20T05:09:17.290Z,78.89
2019-06-20T05:09:47.331Z,77.83
2019-06-20T05:10:18.287Z,77.34
2019-06-20T05:10:47.342Z,76.74
2019-06-20T05:11:20.123Z,76.53
2019-06-20T05:11:47.335Z,75.67
2019-06-20T05:12:17.274Z,74.58
2019-06-20T05:12:47.332Z,73.88
2019-06-20T05:13:17.272Z,73.63
2019-06-20T05:13:47.334Z,73.58
2019-06-20T05:14:17.431Z,73.07
2019-06-20T05:14:47.343Z,72.80
2019-06-20T05:15:17.274Z,72.66
2019-06-20T05:15:52.842Z,72.79
2019-06-20T05:16:17.316Z,73.07
2019-06-20T05:16:47.340Z,73.44
2019-06-20T05:17:17.277Z,73.13
2019-06-20T05:17:47.330Z,73.43
2019-06-20T05:18:17.276Z,73.95
2019-06-20T05:18:50.264Z,73.70
2019-06-20T05:19:17.276Z,73.15
2019-06-20T05:19:47.349Z,73.33
2019-06-20T05:20:17.276Z,73.67
2019-06-20T05:20:48.355Z,72.90
2019-06-20T05:21:17.272Z,72.58
2019-06-20T05:21:50.110Z,72.86
2019-06-20T05:22:17.271Z,72.90
2019-06-20T05:22:47.342Z,72.37
2019-06-20T05:23:17.282Z,72.49
2019-06-20T05:23:47.337Z,72.39
2019-06-20T05:24:17.306Z,72.92
2019-06-20T05:24:47.337Z,73.10
2019-06-20T05:25:17.270Z,72.94
2019-06-20T05:25:47.337Z,72.14
2019-06-20T05:26:17.274Z,72.06
2019-06-20T05:26:47.336Z,71.49
2019-06-20T05:27:17.278Z,71.34
2019-06-20T05:27:47.336Z,70.63
2019-06-20T05:28:17.279Z,70.52
2019-06-20T05:28:47.341Z,70.69
2019-06-20T05:29:20.228Z,70.09
2019-06-20T05:29:47.341Z,69.99
2019-06-20T05:30:17.283Z,70.61
2019-06-20T05:30:47.357Z,70.96
2019-06-20T05:31:18.309Z,71.26
2019-06-20T05:31:47.345Z,71.78
2019-06-20T05:32:20.215Z,71.49
2019-06-20T05:32:47.348Z,72.04
2019-06-20T05:33:17.285Z,72.31
2019-06-20T05:33:47.355Z,72.84
2019-06-20T05:34:17.280Z,73.16
2019-06-20T05:34:47.351Z,73.47
2019-06-20T05:35:17.283Z,73.62
2019-06-20T05:35:47.339Z,73.55
2019-06-20T05:36:17.280Z,73.65
2019-06-20T05:36:47.350Z,73.62
2019-06-20T05:37:17.274Z,72.83
2019-06-20T05:37:47.338Z,72.99
2019-06-20T05:38:17.282Z,73.10
2019-06-20T05:38:47.343Z,73.60
2019-06-20T05:39:17.275Z,73.37
2019-06-20T05:39:50.256Z,72.14
2019-06-20T05:40:17.283Z,71.99
2019-06-20T05:40:47.380Z,72.12
2019-06-20T05:41:17.277Z,72.73
2019-06-20T05:41:48.347Z,72.96
2019-06-20T05:42:17.279Z,72.14
2019-06-20T05:42:52.337Z,71.66
2019-06-20T05:43:17.283Z,71.77
2019-06-20T05:43:47.341Z,71.20
2019-06-20T05:44:17.285Z,71.43
2019-06-20T05:44:47.348Z,70.74
2019-06-20T05:45:17.293Z,70.90
2019-06-20T05:45:49.365Z,70.78
2019-06-20T05:46:17.402Z,71.08
2019-06-20T05:46:47.354Z,71.57
2019-06-20T05:47:17.285Z,72.04
2019-06-20T05:47:47.342Z,71.89
2019-06-20T05:48:17.285Z,72.39
2019-06-20T05:48:47.336Z,72.85
2019-06-20T05:49:17.285Z,73.22
2019-06-20T05:49:47.346Z,73.40
2019-06-20T05:50:20.256Z,73.40
2019-06-20T05:50:47.346Z,73.06
2019-06-20T05:51:17.280Z,73.11
2019-06-20T05:51:47.348Z,73.45
2019-06-20T05:52:18.289Z,73.94
2019-06-20T05:52:47.386Z,74.15
2019-06-20T05:53:20.205Z,74.07
2019-06-20T05:53:47.351Z,74.09
2019-06-20T05:54:17.282Z,74.60
2019-06-20T05:54:47.347Z,74.40
2019-06-20T05:55:17.286Z,74.39
2019-06-20T05:55:47.350Z,74.28
2019-06-20T05:56:17.286Z,74.49
2019-06-20T05:56:47.358Z,74.66
2019-06-20T05:57:17.284Z,74.61
2019-06-20T05:57:47.343Z,74.58
2019-06-20T05:58:17.283Z,74.00
2019-06-20T05:58:47.346Z,74.39
2019-06-20T05:59:17.300Z,74.65
2019-06-20T05:59:47.355Z,74.48
2019-06-20T06:00:17.291Z,74.48
2019-06-20T06:00:50.257Z,74.58
2019-06-20T06:01:17.293Z,74.71
2019-06-20T06:01:47.343Z,74.42
2019-06-20T06:02:17.287Z,74.71
2019-06-20T06:02:48.399Z,75.53
2019-06-20T06:03:17.282Z,75.58
2019-06-20T06:03:52.103Z,75.23
2019-06-20T06:04:17.290Z,75.26
2019-06-20T06:04:47.363Z,75.24
2019-06-20T06:05:17.295Z,75.62
2019-06-20T06:05:47.353Z,75.27
2019-06-20T06:06:17.297Z,75.05
2019-06-20T06:07:17.290Z,73.15
2019-06-20T06:07:47.356Z,73.36
2019-06-20T06:08:17.405Z,73.42
2019-06-20T06:09:17.286Z,71.79
2019-06-20T06:09:47.351Z,71.51
2019-06-20T06:10:17.283Z,71.80
2019-06-20T06:10:47.353Z,71.39
2019-06-20T06:11:47.366Z,70.29
2019-06-20T06:12:17.297Z,69.49
2019-06-20T06:13:18.301Z,69.04
2019-06-20T06:13:47.356Z,68.40
2019-06-20T06:14:20.113Z,68.77
2019-06-20T06:14:47.359Z,68.21
2019-06-20T06:15:17.297Z,68.91
2019-06-20T06:15:47.360Z,68.83
2019-06-20T06:16:25.994Z,68.82
2019-06-20T06:16:47.362Z,68.75
2019-06-20T06:17:17.295Z,69.47
2019-06-20T06:17:47.360Z,69.88
2019-06-20T06:18:17.297Z,69.84
2019-06-20T06:18:47.352Z,70.45
2019-06-20T06:19:17.297Z,70.64
2019-06-20T06:19:47.361Z,71.15
2019-06-20T06:20:17.291Z,70.87
2019-06-20T06:20:47.351Z,71.12
2019-06-20T06:21:17.296Z,71.21
2019-06-20T06:21:50.261Z,70.84
2019-06-20T06:22:17.293Z,71.18
2019-06-20T06:22:47.354Z,70.99
2019-06-20T06:23:17.289Z,71.07
2019-06-20T06:23:48.363Z,71.02
2019-06-20T06:24:17.294Z,71.08
2019-06-20T06:24:52.112Z,71.13
2019-06-20T06:25:17.296Z,71.36
2019-06-20T06:25:47.354Z,71.25
2019-06-20T06:26:17.299Z,71.67
2019-06-20T06:26:47.358Z,71.96
2019-06-20T06:27:17.300Z,71.80
2019-06-20T06:27:47.353Z,71.90
2019-06-20T06:28:17.296Z,72.06
2019-06-20T06:28:47.360Z,71.86
2019-06-20T06:29:17.297Z,71.93
2019-06-20T06:29:47.356Z,72.00